Main page
METAR-TAF:

METAR-TAF

Airports :

Jerez Airport

Jerez de la Frontera, Spain

latitude: 36-45N, longitude: 006-04W, elevation: 27 m

Current weather observation

The report was made 6 minutes ago, at 19:00 UTC
Wind 6 kt from the West, varying between West/Southwest and Northwest
Temperature 30°C
Humidity 46%
Pressure 1011 hPa
Visibility 10 km or more
no clouds below 1500 m and no cumulonimbus

METAR: LEJR 281900Z 27006KT 240V310 CAVOK 30/17 Q1011

Time: 21:06 (19:06 UTC)

Forecast

The report was made 5 hours and 6 minutes ago, at 14:00 UTC
Forecast valid from 28 at 15 UTC to 29 at 15 UTC
Wind 10 kt from the South/Southwest
Visibility 10 km or more
no clouds below 1500 m and no cumulonimbus
Becoming
from 28 at 20 UTC to 28 at 23 UTC
Wind 2 kt from variable directions
Becoming
from 29 at 09 UTC to 29 at 12 UTC
Wind 10 kt from the South/Southwest

TAF: LEJR 281400Z 2815/2915 21010KT CAVOK TX36/2815Z TN18/2905Z BECMG 2820/2823 VRB02KT BECMG 2909/2912 20010KT

Weather observations and forecasts of more than 4000 airports (METAR and TAF reports).

The available stations are represented by yellow and red dots on the map.

Hover mouse over dot to see the name of the station.

Then click to see weather observations and forecasts.

To change the map : click on the green buttons with a black cross to zoom in, on the green button with a dash to zoom out, or on the green arrows for adjacent maps.


METAR-TAF: